sensor_id;sensor_type;location;lat;lon;timestamp;temperature;humidity
45837;DHT22;31548;51.420;-0.040;2022-09-09T00:01:57;16.60;99.90
45837;DHT22;31548;51.420;-0.040;2022-09-09T00:04:30;16.60;99.90
45837;DHT22;31548;51.420;-0.040;2022-09-09T00:15:21;16.60;99.90
45837;DHT22;31548;51.420;-0.040;2022-09-09T00:20:37;16.60;99.90
45837;DHT22;31548;51.420;-0.040;2022-09-09T00:23:28;16.60;99.90
45837;DHT22;31548;51.420;-0.040;2022-09-09T00:28:55;16.60;99.90
45837;DHT22;31548;51.420;-0.040;2022-09-09T00:31:28;16.60;99.90
45837;DHT22;31548;51.420;-0.040;2022-09-09T00:34:05;16.60;99.90
45837;DHT22;31548;51.420;-0.040;2022-09-09T00:36:38;16.70;99.90
45837;DHT22;31548;51.420;-0.040;2022-09-09T00:39:05;16.70;99.90
45837;DHT22;31548;51.420;-0.040;2022-09-09T00:42:15;16.60;99.90
45837;DHT22;31548;51.420;-0.040;2022-09-09T00:45:25;16.70;99.90
45837;DHT22;31548;51.420;-0.040;2022-09-09T00:47:57;16.60;99.90
45837;DHT22;31548;51.420;-0.040;2022-09-09T00:50:55;16.60;99.90
45837;DHT22;31548;51.420;-0.040;2022-09-09T00:53:39;16.70;99.90
45837;DHT22;31548;51.420;-0.040;2022-09-09T00:56:14;16.70;99.90
45837;DHT22;31548;51.420;-0.040;2022-09-09T00:58:43;16.60;99.90
45837;DHT22;31548;51.420;-0.040;2022-09-09T01:01:13;16.70;99.90
45837;DHT22;31548;51.420;-0.040;2022-09-09T01:03:52;16.60;99.90
45837;DHT22;31548;51.420;-0.040;2022-09-09T01:06:30;16.70;99.90
45837;DHT22;31548;51.420;-0.040;2022-09-09T01:09:18;16.70;99.90
45837;DHT22;31548;51.420;-0.040;2022-09-09T01:17:19;16.60;99.90
45837;DHT22;31548;51.420;-0.040;2022-09-09T01:26:04;16.60;99.90
45837;DHT22;31548;51.420;-0.040;2022-09-09T01:28:37;16.50;99.90
45837;DHT22;31548;51.420;-0.040;2022-09-09T01:31:15;16.50;99.90
45837;DHT22;31548;51.420;-0.040;2022-09-09T01:33:46;16.50;99.90
45837;DHT22;31548;51.420;-0.040;2022-09-09T01:36:21;16.50;99.90
45837;DHT22;31548;51.420;-0.040;2022-09-09T01:38:52;16.40;99.90
45837;DHT22;31548;51.420;-0.040;2022-09-09T01:41:19;16.40;99.90
45837;DHT22;31548;51.420;-0.040;2022-09-09T01:43:54;16.40;99.90
45837;DHT22;31548;51.420;-0.040;2022-09-09T01:46:23;16.40;99.90
45837;DHT22;31548;51.420;-0.040;2022-09-09T01:48:52;16.40;99.90
45837;DHT22;31548;51.420;-0.040;2022-09-09T01:51:21;16.30;99.90
45837;DHT22;31548;51.420;-0.040;2022-09-09T01:53:49;16.30;99.90
45837;DHT22;31548;51.420;-0.040;2022-09-09T02:10:21;16.10;99.90
45837;DHT22;31548;51.420;-0.040;2022-09-09T02:13:09;16.10;99.90
45837;DHT22;31548;51.420;-0.040;2022-09-09T02:15:45;16.00;99.90
45837;DHT22;31548;51.420;-0.040;2022-09-09T02:18:15;16.00;99.90
45837;DHT22;31548;51.420;-0.040;2022-09-09T02:20:45;16.00;99.90
45837;DHT22;31548;51.420;-0.040;2022-09-09T02:23:14;16.00;99.90
45837;DHT22;31548;51.420;-0.040;2022-09-09T02:25:44;16.00;99.90
45837;DHT22;31548;51.420;-0.040;2022-09-09T02:28:21;15.90;99.90
45837;DHT22;31548;51.420;-0.040;2022-09-09T02:30:50;16.00;99.90
45837;DHT22;31548;51.420;-0.040;2022-09-09T02:33:33;16.00;99.90
45837;DHT22;31548;51.420;-0.040;2022-09-09T02:36:03;16.00;99.90
45837;DHT22;31548;51.420;-0.040;2022-09-09T02:38:37;16.00;99.90
45837;DHT22;31548;51.420;-0.040;2022-09-09T02:41:10;16.00;99.90
45837;DHT22;31548;51.420;-0.040;2022-09-09T02:43:38;16.00;99.90
45837;DHT22;31548;51.420;-0.040;2022-09-09T02:49:19;16.00;99.90
45837;DHT22;31548;51.420;-0.040;2022-09-09T02:52:07;16.00;99.90
45837;DHT22;31548;51.420;-0.040;2022-09-09T02:54:38;16.00;99.90
45837;DHT22;31548;51.420;-0.040;2022-09-09T02:57:27;16.00;99.90
45837;DHT22;31548;51.420;-0.040;2022-09-09T02:59:58;16.00;99.90
45837;DHT22;31548;51.420;-0.040;2022-09-09T03:02:26;16.00;99.90
45837;DHT22;31548;51.420;-0.040;2022-09-09T03:04:59;16.00;99.90
45837;DHT22;31548;51.420;-0.040;2022-09-09T03:07:26;16.10;99.90
45837;DHT22;31548;51.420;-0.040;2022-09-09T03:09:55;16.00;99.90
45837;DHT22;31548;51.420;-0.040;2022-09-09T03:12:25;16.00;99.90
45837;DHT22;31548;51.420;-0.040;2022-09-09T03:14:52;16.00;99.90
45837;DHT22;31548;51.420;-0.040;2022-09-09T03:17:20;16.00;99.90
45837;DHT22;31548;51.420;-0.040;2022-09-09T03:19:52;16.00;99.90
45837;DHT22;31548;51.420;-0.040;2022-09-09T03:22:21;16.00;99.90
45837;DHT22;31548;51.420;-0.040;2022-09-09T03:24:49;16.00;99.90
45837;DHT22;31548;51.420;-0.040;2022-09-09T03:27:17;16.00;99.90
45837;DHT22;31548;51.420;-0.040;2022-09-09T03:29:45;16.00;99.90
45837;DHT22;31548;51.420;-0.040;2022-09-09T03:32:18;16.00;99.90
45837;DHT22;31548;51.420;-0.040;2022-09-09T03:34:45;15.90;99.90
45837;DHT22;31548;51.420;-0.040;2022-09-09T03:37:14;16.00;99.90
45837;DHT22;31548;51.420;-0.040;2022-09-09T03:39:42;16.00;99.90
45837;DHT22;31548;51.420;-0.040;2022-09-09T03:42:15;16.00;99.90
45837;DHT22;31548;51.420;-0.040;2022-09-09T03:44:49;16.00;99.90
45837;DHT22;31548;51.420;-0.040;2022-09-09T03:47:20;16.00;99.90
45837;DHT22;31548;51.420;-0.040;2022-09-09T03:49:51;16.00;99.90
45837;DHT22;31548;51.420;-0.040;2022-09-09T03:52:18;16.00;99.90
45837;DHT22;31548;51.420;-0.040;2022-09-09T03:54:52;16.00;99.90
45837;DHT22;31548;51.420;-0.040;2022-09-09T03:57:20;16.00;99.90
45837;DHT22;31548;51.420;-0.040;2022-09-09T03:59:48;16.00;99.90
45837;DHT22;31548;51.420;-0.040;2022-09-09T04:02:15;16.00;99.90
45837;DHT22;31548;51.420;-0.040;2022-09-09T04:04:42;16.00;99.90
45837;DHT22;31548;51.420;-0.040;2022-09-09T04:07:10;16.00;99.90
45837;DHT22;31548;51.420;-0.040;2022-09-09T04:09:39;16.00;99.90
45837;DHT22;31548;51.420;-0.040;2022-09-09T04:12:07;15.90;99.90
45837;DHT22;31548;51.420;-0.040;2022-09-09T04:14:35;15.90;99.90
45837;DHT22;31548;51.420;-0.040;2022-09-09T04:17:04;16.00;99.90
45837;DHT22;31548;51.420;-0.040;2022-09-09T04:19:33;16.00;99.90
45837;DHT22;31548;51.420;-0.040;2022-09-09T04:22:01;16.00;99.90
45837;DHT22;31548;51.420;-0.040;2022-09-09T04:24:28;16.00;99.90
45837;DHT22;31548;51.420;-0.040;2022-09-09T04:26:57;16.00;99.90
45837;DHT22;31548;51.420;-0.040;2022-09-09T04:29:24;15.90;99.90
45837;DHT22;31548;51.420;-0.040;2022-09-09T04:31:52;15.90;99.90
45837;DHT22;31548;51.420;-0.040;2022-09-09T04:34:20;15.90;99.90
45837;DHT22;31548;51.420;-0.040;2022-09-09T04:36:48;15.90;99.90
45837;DHT22;31548;51.420;-0.040;2022-09-09T04:39:15;15.90;99.90
45837;DHT22;31548;51.420;-0.040;2022-09-09T04:41:43;15.90;99.90
45837;DHT22;31548;51.420;-0.040;2022-09-09T04:44:11;15.90;99.90
45837;DHT22;31548;51.420;-0.040;2022-09-09T04:46:38;15.80;99.90
45837;DHT22;31548;51.420;-0.040;2022-09-09T04:49:06;15.80;99.90
45837;DHT22;31548;51.420;-0.040;2022-09-09T04:51:37;15.90;99.90
45837;DHT22;31548;51.420;-0.040;2022-09-09T04:54:05;15.90;99.90
45837;DHT22;31548;51.420;-0.040;2022-09-09T04:56:32;15.90;99.90
45837;DHT22;31548;51.420;-0.040;2022-09-09T04:59:00;15.80;99.90
45837;DHT22;31548;51.420;-0.040;2022-09-09T05:01:42;15.90;99.90
45837;DHT22;31548;51.420;-0.040;2022-09-09T05:04:10;15.90;99.90
45837;DHT22;31548;51.420;-0.040;2022-09-09T05:06:38;15.80;99.90
45837;DHT22;31548;51.420;-0.040;2022-09-09T05:09:05;15.90;99.90
45837;DHT22;31548;51.420;-0.040;2022-09-09T05:11:33;15.90;99.90
45837;DHT22;31548;51.420;-0.040;2022-09-09T05:14:10;15.80;99.90
45837;DHT22;31548;51.420;-0.040;2022-09-09T05:16:39;15.90;99.90
45837;DHT22;31548;51.420;-0.040;2022-09-09T05:19:07;15.90;99.90
45837;DHT22;31548;51.420;-0.040;2022-09-09T05:21:43;15.80;99.90
45837;DHT22;31548;51.420;-0.040;2022-09-09T05:24:11;15.90;99.90
45837;DHT22;31548;51.420;-0.040;2022-09-09T05:26:39;15.90;99.90
45837;DHT22;31548;51.420;-0.040;2022-09-09T05:29:07;15.90;99.90
45837;DHT22;31548;51.420;-0.040;2022-09-09T05:31:35;15.90;99.90
45837;DHT22;31548;51.420;-0.040;2022-09-09T05:34:08;15.90;99.90
45837;DHT22;31548;51.420;-0.040;2022-09-09T05:36:35;15.80;99.90
45837;DHT22;31548;51.420;-0.040;2022-09-09T05:39:03;15.90;99.90
45837;DHT22;31548;51.420;-0.040;2022-09-09T05:41:32;15.80;99.90
45837;DHT22;31548;51.420;-0.040;2022-09-09T05:44:01;15.80;99.90
45837;DHT22;31548;51.420;-0.040;2022-09-09T05:46:32;15.80;99.90
45837;DHT22;31548;51.420;-0.040;2022-09-09T05:48:59;15.80;99.90
45837;DHT22;31548;51.420;-0.040;2022-09-09T05:51:31;15.80;99.90
45837;DHT22;31548;51.420;-0.040;2022-09-09T05:54:03;15.80;99.90
45837;DHT22;31548;51.420;-0.040;2022-09-09T05:56:34;15.80;99.90
45837;DHT22;31548;51.420;-0.040;2022-09-09T05:59:01;15.80;99.90
45837;DHT22;31548;51.420;-0.040;2022-09-09T06:01:31;15.70;99.90
45837;DHT22;31548;51.420;-0.040;2022-09-09T06:04:01;15.80;99.90
45837;DHT22;31548;51.420;-0.040;2022-09-09T06:06:32;15.80;99.90
45837;DHT22;31548;51.420;-0.040;2022-09-09T06:09:08;15.70;99.90
45837;DHT22;31548;51.420;-0.040;2022-09-09T06:11:39;15.70;99.90
45837;DHT22;31548;51.420;-0.040;2022-09-09T06:14:08;15.70;99.90
45837;DHT22;31548;51.420;-0.040;2022-09-09T06:16:37;15.80;99.90
45837;DHT22;31548;51.420;-0.040;2022-09-09T06:19:15;15.80;99.90
45837;DHT22;31548;51.420;-0.040;2022-09-09T06:21:43;15.80;99.90
45837;DHT22;31548;51.420;-0.040;2022-09-09T06:24:12;15.80;99.90
45837;DHT22;31548;51.420;-0.040;2022-09-09T06:26:41;15.80;99.90
45837;DHT22;31548;51.420;-0.040;2022-09-09T06:29:11;15.80;99.90
45837;DHT22;31548;51.420;-0.040;2022-09-09T06:31:41;15.80;99.90
45837;DHT22;31548;51.420;-0.040;2022-09-09T06:34:14;15.80;99.90
45837;DHT22;31548;51.420;-0.040;2022-09-09T06:36:45;15.80;99.90
45837;DHT22;31548;51.420;-0.040;2022-09-09T06:39:13;15.80;99.90
45837;DHT22;31548;51.420;-0.040;2022-09-09T06:41:43;15.80;99.90
45837;DHT22;31548;51.420;-0.040;2022-09-09T06:44:39;15.80;99.90
45837;DHT22;31548;51.420;-0.040;2022-09-09T06:47:11;15.80;99.90
45837;DHT22;31548;51.420;-0.040;2022-09-09T06:49:40;15.80;99.90
45837;DHT22;31548;51.420;-0.040;2022-09-09T06:52:11;15.80;99.90
45837;DHT22;31548;51.420;-0.040;2022-09-09T06:54:38;15.80;99.90
45837;DHT22;31548;51.420;-0.040;2022-09-09T06:57:06;15.90;99.90
45837;DHT22;31548;51.420;-0.040;2022-09-09T06:59:55;15.80;99.90
45837;DHT22;31548;51.420;-0.040;2022-09-09T07:02:22;15.80;99.90
45837;DHT22;31548;51.420;-0.040;2022-09-09T07:04:50;15.80;99.90
45837;DHT22;31548;51.420;-0.040;2022-09-09T07:07:18;15.90;99.90
45837;DHT22;31548;51.420;-0.040;2022-09-09T07:09:46;15.90;99.90
45837;DHT22;31548;51.420;-0.040;2022-09-09T07:12:13;15.90;99.90
45837;DHT22;31548;51.420;-0.040;2022-09-09T07:14:48;16.00;99.90
45837;DHT22;31548;51.420;-0.040;2022-09-09T07:17:15;16.00;99.90
45837;DHT22;31548;51.420;-0.040;2022-09-09T07:19:42;16.10;99.90
45837;DHT22;31548;51.420;-0.040;2022-09-09T07:22:10;16.00;99.90
45837;DHT22;31548;51.420;-0.040;2022-09-09T07:24:38;16.10;99.90
45837;DHT22;31548;51.420;-0.040;2022-09-09T07:27:06;16.00;99.90
45837;DHT22;31548;51.420;-0.040;2022-09-09T07:29:35;16.10;99.90
45837;DHT22;31548;51.420;-0.040;2022-09-09T07:32:03;16.10;99.90
45837;DHT22;31548;51.420;-0.040;2022-09-09T07:34:35;16.10;99.90
45837;DHT22;31548;51.420;-0.040;2022-09-09T07:37:02;16.20;99.90
45837;DHT22;31548;51.420;-0.040;2022-09-09T07:39:31;16.10;99.90
45837;DHT22;31548;51.420;-0.040;2022-09-09T07:41:58;16.10;99.90
45837;DHT22;31548;51.420;-0.040;2022-09-09T07:44:26;16.10;99.90
45837;DHT22;31548;51.420;-0.040;2022-09-09T07:47:07;16.10;99.90
45837;DHT22;31548;51.420;-0.040;2022-09-09T07:49:38;16.20;99.90
45837;DHT22;31548;51.420;-0.040;2022-09-09T07:52:07;16.20;99.90
45837;DHT22;31548;51.420;-0.040;2022-09-09T07:54:37;16.10;99.90
45837;DHT22;31548;51.420;-0.040;2022-09-09T07:57:05;16.20;99.90
45837;DHT22;31548;51.420;-0.040;2022-09-09T07:59:35;16.30;99.90
45837;DHT22;31548;51.420;-0.040;2022-09-09T08:02:03;16.30;99.90
45837;DHT22;31548;51.420;-0.040;2022-09-09T08:04:33;16.30;99.90
45837;DHT22;31548;51.420;-0.040;2022-09-09T08:07:02;16.30;99.90
45837;DHT22;31548;51.420;-0.040;2022-09-09T08:09:36;16.40;99.90
45837;DHT22;31548;51.420;-0.040;2022-09-09T08:12:12;16.50;99.90
45837;DHT22;31548;51.420;-0.040;2022-09-09T08:14:40;16.60;99.90
45837;DHT22;31548;51.420;-0.040;2022-09-09T08:17:07;16.70;99.90
45837;DHT22;31548;51.420;-0.040;2022-09-09T08:19:35;16.60;99.90
45837;DHT22;31548;51.420;-0.040;2022-09-09T08:22:07;16.60;99.90
45837;DHT22;31548;51.420;-0.040;2022-09-09T08:24:37;16.60;99.90
45837;DHT22;31548;51.420;-0.040;2022-09-09T08:27:05;16.70;99.90
45837;DHT22;31548;51.420;-0.040;2022-09-09T08:29:33;16.70;99.90
45837;DHT22;31548;51.420;-0.040;2022-09-09T08:32:01;16.70;99.90
45837;DHT22;31548;51.420;-0.040;2022-09-09T08:34:29;16.70;99.90
45837;DHT22;31548;51.420;-0.040;2022-09-09T08:37:00;16.70;99.90
45837;DHT22;31548;51.420;-0.040;2022-09-09T08:39:34;16.70;99.90
45837;DHT22;31548;51.420;-0.040;2022-09-09T08:50:30;16.80;99.90
45837;DHT22;31548;51.420;-0.040;2022-09-09T08:53:11;16.80;99.90
45837;DHT22;31548;51.420;-0.040;2022-09-09T08:56:01;16.80;99.90
45837;DHT22;31548;51.420;-0.040;2022-09-09T08:59:00;16.80;99.90
45837;DHT22;31548;51.420;-0.040;2022-09-09T09:07:37;16.80;99.90
45837;DHT22;31548;51.420;-0.040;2022-09-09T09:10:50;16.70;99.90
45837;DHT22;31548;51.420;-0.040;2022-09-09T09:13:34;16.60;99.90
45837;DHT22;31548;51.420;-0.040;2022-09-09T09:16:38;16.60;99.90
45837;DHT22;31548;51.420;-0.040;2022-09-09T09:19:14;16.70;99.90
45837;DHT22;31548;51.420;-0.040;2022-09-09T09:27:36;16.70;99.90
45837;DHT22;31548;51.420;-0.040;2022-09-09T09:30:15;16.60;99.90
45837;DHT22;31548;51.420;-0.040;2022-09-09T09:33:01;16.70;99.90
45837;DHT22;31548;51.420;-0.040;2022-09-09T09:35:30;16.70;99.90
45837;DHT22;31548;51.420;-0.040;2022-09-09T09:37:57;16.60;99.90
45837;DHT22;31548;51.420;-0.040;2022-09-09T09:40:51;16.60;99.90
45837;DHT22;31548;51.420;-0.040;2022-09-09T09:43:23;16.80;99.90
45837;DHT22;31548;51.420;-0.040;2022-09-09T09:45:52;16.80;99.90
45837;DHT22;31548;51.420;-0.040;2022-09-09T09:48:39;16.90;99.90
45837;DHT22;31548;51.420;-0.040;2022-09-09T09:51:11;16.90;99.90
45837;DHT22;31548;51.420;-0.040;2022-09-09T09:53:43;17.00;99.90
45837;DHT22;31548;51.420;-0.040;2022-09-09T09:56:13;17.10;99.90
45837;DHT22;31548;51.420;-0.040;2022-09-09T10:01:26;17.10;99.90
45837;DHT22;31548;51.420;-0.040;2022-09-09T10:03:57;17.30;99.90
45837;DHT22;31548;51.420;-0.040;2022-09-09T10:06:34;17.40;99.90
45837;DHT22;31548;51.420;-0.040;2022-09-09T10:09:03;17.50;99.90
45837;DHT22;31548;51.420;-0.040;2022-09-09T10:14:22;17.40;99.90
45837;DHT22;31548;51.420;-0.040;2022-09-09T10:17:15;17.40;99.90
45837;DHT22;31548;51.420;-0.040;2022-09-09T10:20:42;17.20;99.90
45837;DHT22;31548;51.420;-0.040;2022-09-09T10:22:57;17.20;99.90
45837;DHT22;31548;51.420;-0.040;2022-09-09T10:26:14;17.30;99.90
45837;DHT22;31548;51.420;-0.040;2022-09-09T10:31:25;17.30;99.90
45837;DHT22;31548;51.420;-0.040;2022-09-09T10:36:34;17.40;99.90
45837;DHT22;31548;51.420;-0.040;2022-09-09T10:39:38;17.60;99.90
45837;DHT22;31548;51.420;-0.040;2022-09-09T10:42:13;17.60;99.90
45837;DHT22;31548;51.420;-0.040;2022-09-09T10:44:53;17.60;99.90
45837;DHT22;31548;51.420;-0.040;2022-09-09T10:56:03;17.50;99.90
45837;DHT22;31548;51.420;-0.040;2022-09-09T10:58:42;17.50;99.90
45837;DHT22;31548;51.420;-0.040;2022-09-09T11:01:24;17.40;99.90
45837;DHT22;31548;51.420;-0.040;2022-09-09T11:03:56;17.40;99.90
45837;DHT22;31548;51.420;-0.040;2022-09-09T11:06:32;17.40;99.90
45837;DHT22;31548;51.420;-0.040;2022-09-09T11:09:02;17.40;99.90
45837;DHT22;31548;51.420;-0.040;2022-09-09T11:11:41;17.50;99.90
45837;DHT22;31548;51.420;-0.040;2022-09-09T11:14:22;17.50;99.90
45837;DHT22;31548;51.420;-0.040;2022-09-09T11:19:56;17.40;99.90
45837;DHT22;31548;51.420;-0.040;2022-09-09T11:22:53;17.40;99.90
45837;DHT22;31548;51.420;-0.040;2022-09-09T11:25:41;17.40;99.90
45837;DHT22;31548;51.420;-0.040;2022-09-09T11:33:49;17.50;99.90
45837;DHT22;31548;51.420;-0.040;2022-09-09T11:39:00;17.80;99.90
45837;DHT22;31548;51.420;-0.040;2022-09-09T11:41:34;17.90;99.90
45837;DHT22;31548;51.420;-0.040;2022-09-09T11:44:12;17.90;99.90
45837;DHT22;31548;51.420;-0.040;2022-09-09T11:46:47;17.90;99.90
45837;DHT22;31548;51.420;-0.040;2022-09-09T11:49:28;17.90;99.90
45837;DHT22;31548;51.420;-0.040;2022-09-09T11:51:57;17.80;99.90
45837;DHT22;31548;51.420;-0.040;2022-09-09T11:54:33;18.00;99.90
45837;DHT22;31548;51.420;-0.040;2022-09-09T11:57:29;18.00;99.90
45837;DHT22;31548;51.420;-0.040;2022-09-09T11:59:57;18.20;99.90
45837;DHT22;31548;51.420;-0.040;2022-09-09T12:02:27;18.30;99.90
45837;DHT22;31548;51.420;-0.040;2022-09-09T12:05:07;18.40;99.90
45837;DHT22;31548;51.420;-0.040;2022-09-09T12:07:37;18.50;99.90
45837;DHT22;31548;51.420;-0.040;2022-09-09T12:12:47;18.60;99.90
45837;DHT22;31548;51.420;-0.040;2022-09-09T12:15:22;18.60;99.90
45837;DHT22;31548;51.420;-0.040;2022-09-09T12:17:54;18.70;99.90
45837;DHT22;31548;51.420;-0.040;2022-09-09T12:20:35;18.80;99.90
45837;DHT22;31548;51.420;-0.040;2022-09-09T12:34:10;18.90;99.90
45837;DHT22;31548;51.420;-0.040;2022-09-09T12:36:39;18.90;99.90
45837;DHT22;31548;51.420;-0.040;2022-09-09T12:41:54;18.90;99.90
45837;DHT22;31548;51.420;-0.040;2022-09-09T12:44:25;19.10;99.90
45837;DHT22;31548;51.420;-0.040;2022-09-09T12:47:00;19.30;99.90
45837;DHT22;31548;51.420;-0.040;2022-09-09T12:49:39;19.30;99.90
45837;DHT22;31548;51.420;-0.040;2022-09-09T12:52:16;19.50;99.90
45837;DHT22;31548;51.420;-0.040;2022-09-09T12:54:45;19.70;99.90
45837;DHT22;31548;51.420;-0.040;2022-09-09T12:57:18;19.90;99.90
45837;DHT22;31548;51.420;-0.040;2022-09-09T12:59:45;20.00;99.90
45837;DHT22;31548;51.420;-0.040;2022-09-09T13:02:25;20.20;99.90
45837;DHT22;31548;51.420;-0.040;2022-09-09T13:04:53;20.30;99.90
45837;DHT22;31548;51.420;-0.040;2022-09-09T13:07:21;20.40;99.90
45837;DHT22;31548;51.420;-0.040;2022-09-09T13:09:49;20.40;99.90
45837;DHT22;31548;51.420;-0.040;2022-09-09T13:12:19;20.30;99.90
45837;DHT22;31548;51.420;-0.040;2022-09-09T13:14:49;20.10;99.90
45837;DHT22;31548;51.420;-0.040;2022-09-09T13:17:21;20.00;99.90
45837;DHT22;31548;51.420;-0.040;2022-09-09T13:19:50;19.90;99.90
45837;DHT22;31548;51.420;-0.040;2022-09-09T13:27:40;20.60;99.90
45837;DHT22;31548;51.420;-0.040;2022-09-09T13:30:37;20.50;99.90
45837;DHT22;31548;51.420;-0.040;2022-09-09T13:36:02;20.50;99.90
45837;DHT22;31548;51.420;-0.040;2022-09-09T13:41:24;20.50;99.90
45837;DHT22;31548;51.420;-0.040;2022-09-09T13:43:52;20.30;99.90
45837;DHT22;31548;51.420;-0.040;2022-09-09T13:48:57;20.30;99.90
45837;DHT22;31548;51.420;-0.040;2022-09-09T13:51:35;20.30;99.90
45837;DHT22;31548;51.420;-0.040;2022-09-09T13:54:09;20.20;99.90
45837;DHT22;31548;51.420;-0.040;2022-09-09T13:56:38;20.60;99.90
45837;DHT22;31548;51.420;-0.040;2022-09-09T13:59:11;21.00;99.90
45837;DHT22;31548;51.420;-0.040;2022-09-09T14:01:38;21.20;99.90
45837;DHT22;31548;51.420;-0.040;2022-09-09T14:04:05;21.10;99.90
45837;DHT22;31548;51.420;-0.040;2022-09-09T14:06:34;21.00;99.90
45837;DHT22;31548;51.420;-0.040;2022-09-09T14:09:06;20.80;99.90
45837;DHT22;31548;51.420;-0.040;2022-09-09T14:11:34;20.80;99.90
45837;DHT22;31548;51.420;-0.040;2022-09-09T14:14:01;20.80;99.90
45837;DHT22;31548;51.420;-0.040;2022-09-09T14:16:28;20.70;99.90
45837;DHT22;31548;51.420;-0.040;2022-09-09T14:18:56;20.70;99.90
45837;DHT22;31548;51.420;-0.040;2022-09-09T14:21:24;20.70;99.90
45837;DHT22;31548;51.420;-0.040;2022-09-09T14:23:52;20.70;99.90
45837;DHT22;31548;51.420;-0.040;2022-09-09T14:26:22;20.70;99.90
45837;DHT22;31548;51.420;-0.040;2022-09-09T14:28:50;20.70;99.90
45837;DHT22;31548;51.420;-0.040;2022-09-09T14:31:23;20.70;99.90
45837;DHT22;31548;51.420;-0.040;2022-09-09T14:33:51;20.60;99.90
45837;DHT22;31548;51.420;-0.040;2022-09-09T14:36:19;20.60;99.90
45837;DHT22;31548;51.420;-0.040;2022-09-09T14:38:47;20.60;99.90
45837;DHT22;31548;51.420;-0.040;2022-09-09T14:41:17;20.60;99.90
45837;DHT22;31548;51.420;-0.040;2022-09-09T14:43:45;20.50;99.90
45837;DHT22;31548;51.420;-0.040;2022-09-09T14:46:15;20.50;99.90
45837;DHT22;31548;51.420;-0.040;2022-09-09T14:48:43;20.40;99.90
45837;DHT22;31548;51.420;-0.040;2022-09-09T14:51:21;20.50;99.90
45837;DHT22;31548;51.420;-0.040;2022-09-09T14:53:53;20.50;99.90
45837;DHT22;31548;51.420;-0.040;2022-09-09T14:56:22;20.60;99.90
45837;DHT22;31548;51.420;-0.040;2022-09-09T14:58:50;20.60;99.90
45837;DHT22;31548;51.420;-0.040;2022-09-09T15:01:19;20.60;99.90
45837;DHT22;31548;51.420;-0.040;2022-09-09T15:04:02;20.70;99.90
45837;DHT22;31548;51.420;-0.040;2022-09-09T15:06:32;20.60;99.90
45837;DHT22;31548;51.420;-0.040;2022-09-09T15:09:00;20.60;99.90
45837;DHT22;31548;51.420;-0.040;2022-09-09T15:11:30;20.60;99.90
45837;DHT22;31548;51.420;-0.040;2022-09-09T15:13:57;20.70;99.90
45837;DHT22;31548;51.420;-0.040;2022-09-09T15:16:27;21.00;99.90
45837;DHT22;31548;51.420;-0.040;2022-09-09T15:18:56;21.20;99.90
45837;DHT22;31548;51.420;-0.040;2022-09-09T15:21:27;21.20;99.90
45837;DHT22;31548;51.420;-0.040;2022-09-09T15:23:55;21.10;99.90
45837;DHT22;31548;51.420;-0.040;2022-09-09T15:26:23;20.90;99.90
45837;DHT22;31548;51.420;-0.040;2022-09-09T15:28:50;20.60;99.90
45837;DHT22;31548;51.420;-0.040;2022-09-09T15:31:22;20.30;99.90
45837;DHT22;31548;51.420;-0.040;2022-09-09T15:33:51;20.20;99.90
45837;DHT22;31548;51.420;-0.040;2022-09-09T15:36:24;20.20;99.90
45837;DHT22;31548;51.420;-0.040;2022-09-09T15:38:52;20.10;99.90
45837;DHT22;31548;51.420;-0.040;2022-09-09T15:41:21;20.00;99.90
45837;DHT22;31548;51.420;-0.040;2022-09-09T15:43:51;20.00;99.90
45837;DHT22;31548;51.420;-0.040;2022-09-09T15:48:58;20.00;99.90
45837;DHT22;31548;51.420;-0.040;2022-09-09T15:51:26;20.00;99.90
45837;DHT22;31548;51.420;-0.040;2022-09-09T15:54:16;20.00;99.90
45837;DHT22;31548;51.420;-0.040;2022-09-09T15:56:55;20.00;99.90
45837;DHT22;31548;51.420;-0.040;2022-09-09T15:59:24;19.90;99.90
45837;DHT22;31548;51.420;-0.040;2022-09-09T16:01:51;19.90;99.90
45837;DHT22;31548;51.420;-0.040;2022-09-09T16:04:20;19.70;99.90
45837;DHT22;31548;51.420;-0.040;2022-09-09T16:06:55;19.20;99.90
45837;DHT22;31548;51.420;-0.040;2022-09-09T16:09:25;18.90;99.90
45837;DHT22;31548;51.420;-0.040;2022-09-09T16:11:55;18.90;99.90
45837;DHT22;31548;51.420;-0.040;2022-09-09T16:14:22;18.80;99.90
45837;DHT22;31548;51.420;-0.040;2022-09-09T16:16:51;18.80;99.90
45837;DHT22;31548;51.420;-0.040;2022-09-09T16:19:19;18.90;99.90
45837;DHT22;31548;51.420;-0.040;2022-09-09T16:21:48;18.90;99.90
45837;DHT22;31548;51.420;-0.040;2022-09-09T16:24:17;18.90;99.90
45837;DHT22;31548;51.420;-0.040;2022-09-09T16:26:47;19.00;99.90
45837;DHT22;31548;51.420;-0.040;2022-09-09T16:29:15;19.00;99.90
45837;DHT22;31548;51.420;-0.040;2022-09-09T16:31:48;18.90;99.90
45837;DHT22;31548;51.420;-0.040;2022-09-09T16:34:16;19.00;99.90
45837;DHT22;31548;51.420;-0.040;2022-09-09T16:36:44;19.00;99.90
45837;DHT22;31548;51.420;-0.040;2022-09-09T16:39:18;19.00;99.90
45837;DHT22;31548;51.420;-0.040;2022-09-09T16:41:47;19.00;99.90
45837;DHT22;31548;51.420;-0.040;2022-09-09T16:44:16;19.00;99.90
45837;DHT22;31548;51.420;-0.040;2022-09-09T16:46:46;18.90;99.90
45837;DHT22;31548;51.420;-0.040;2022-09-09T16:49:15;18.90;99.90
45837;DHT22;31548;51.420;-0.040;2022-09-09T16:51:45;19.10;99.90
45837;DHT22;31548;51.420;-0.040;2022-09-09T16:54:15;19.10;99.90
45837;DHT22;31548;51.420;-0.040;2022-09-09T16:56:46;19.10;99.90
45837;DHT22;31548;51.420;-0.040;2022-09-09T16:59:16;19.10;99.90
45837;DHT22;31548;51.420;-0.040;2022-09-09T17:01:46;19.20;99.90
45837;DHT22;31548;51.420;-0.040;2022-09-09T17:04:16;19.20;99.90
45837;DHT22;31548;51.420;-0.040;2022-09-09T17:06:49;19.20;99.90
45837;DHT22;31548;51.420;-0.040;2022-09-09T17:09:17;19.20;99.90
45837;DHT22;31548;51.420;-0.040;2022-09-09T17:11:45;19.20;99.90
45837;DHT22;31548;51.420;-0.040;2022-09-09T17:14:16;19.20;99.90
45837;DHT22;31548;51.420;-0.040;2022-09-09T17:16:44;19.10;99.90
45837;DHT22;31548;51.420;-0.040;2022-09-09T17:19:12;19.10;99.90
45837;DHT22;31548;51.420;-0.040;2022-09-09T17:21:40;19.10;99.90
45837;DHT22;31548;51.420;-0.040;2022-09-09T17:24:27;19.00;99.90
45837;DHT22;31548;51.420;-0.040;2022-09-09T17:26:56;18.90;99.90
45837;DHT22;31548;51.420;-0.040;2022-09-09T17:29:24;18.80;99.90
45837;DHT22;31548;51.420;-0.040;2022-09-09T17:31:52;18.80;99.90
45837;DHT22;31548;51.420;-0.040;2022-09-09T17:34:19;18.70;99.90
45837;DHT22;31548;51.420;-0.040;2022-09-09T17:36:46;18.60;99.90
45837;DHT22;31548;51.420;-0.040;2022-09-09T17:39:15;18.60;99.90
45837;DHT22;31548;51.420;-0.040;2022-09-09T17:41:42;18.60;99.90
45837;DHT22;31548;51.420;-0.040;2022-09-09T17:44:09;18.40;99.90
45837;DHT22;31548;51.420;-0.040;2022-09-09T17:46:39;18.40;99.90
45837;DHT22;31548;51.420;-0.040;2022-09-09T17:49:10;18.40;99.90
45837;DHT22;31548;51.420;-0.040;2022-09-09T17:51:40;18.40;99.90
45837;DHT22;31548;51.420;-0.040;2022-09-09T17:54:12;18.40;99.90